Victory Gardens, New Jersey
Current Conditions -  °F | °C
As of 8:45 PM on Monday 24 Nov 2014 (Local Time) from KMMU Reporting Station
Clear Clear  
Wind Chill: 64°   Ceiling: Unl
Heat Index: 64°   Visibility: 7mi
Dew Point: 55°   Wind: 13mph
Humidity: 73%   Direction: 230°SW
Pressure: 29.7"   Gusts: 18mph
Location:  40.9293°N, 74.5472°W
Report Text: KMMU 250145Z 23011G16KT 7SM SKC 18/13 A2970
Loading
Personal Weather Stations






























Interactive Weather Map New forecast layout! Learn more

10-Day Weather Forecast

Advertisements
Track Severe Weather on mobile